.
WxDataArchive / Data Records for 2006-09-09
2006-09-08 September 2006 2006-09-10

Data Records for Saturday, 09 September 2006

Time	Temp	Chill	HIndex	Humid	Dewpt	 Wind 	HiWind	WindDir	Rain 	Barom 
-----	----	-----	------	-----	-----	------	------	-------	-----	----- 
00:00	68.9	68.9	68.9	73	59.9	1	3	248	0.00	29.972 
00:05	68.8	68.8	68.8	73	59.8	0	3	248	0.00	29.972 
00:10	68.6	68.6	68.6	73	59.6	0	2	248	0.00	29.972 
00:15	68.4	68.4	68.4	74	59.8	0	3	248	0.00	29.972 
00:20	68.3	68.3	68.3	74	59.7	0	2	248	0.00	29.972 
00:25	68.1	68.1	68.1	74	59.5	0	1	248	0.00	29.972 
00:30	67.9	67.9	67.9	75	59.7	0	2	248	0.00	29.971 
00:35	67.8	67.8	67.8	75	59.6	0	2	248	0.00	29.971 
00:40	67.8	67.8	67.8	75	59.6	0	2	248	0.00	29.971 
00:45	67.8	67.8	67.8	75	59.6	0	2	248	0.00	29.971 
00:50	67.6	67.6	67.6	75	59.4	0	1	248	0.00	29.971 
00:55	67.4	67.4	67.4	76	59.6	0	1	248	0.00	29.971 
01:00	67.3	67.3	67.3	76	59.5	0	1	248	0.00	29.968 
01:05	67.1	67.1	67.1	77	59.6	0	1	248	0.00	29.968 
01:10	66.9	66.9	66.9	77	59.4	0	1	248	0.00	29.968 
01:15	66.8	66.8	66.8	77	59.3	0	2	248	0.00	29.968 
01:20	66.6	66.6	66.6	78	59.5	0	1	248	0.00	29.968 
01:25	66.3	66.3	66.3	78	59.2	0	0	---	0.00	29.968 
01:30	66.1	66.1	66.1	79	59.4	0	0	---	0.00	29.970 
01:35	65.8	65.8	65.8	79	59.1	0	0	---	0.00	29.970 
01:40	65.6	65.6	65.6	80	59.3	0	0	---	0.00	29.970 
01:45	65.3	65.3	65.3	80	59.0	0	0	---	0.00	29.971 
01:50	65.0	65.0	65.0	81	59.0	0	0	---	0.00	29.971 
01:55	64.7	64.7	64.7	82	59.1	0	0	---	0.00	29.971 
02:00	64.5	64.5	64.5	83	59.2	0	1	248	0.00	29.973 
02:05	64.3	64.3	64.3	83	59.0	0	1	248	0.00	29.973 
02:10	64.3	64.3	64.3	83	59.0	0	1	248	0.00	29.973 
02:15	64.3	64.3	64.3	83	59.0	0	1	248	0.00	29.972 
02:20	64.2	64.2	64.2	83	58.9	0	0	---	0.00	29.972 
02:25	64.2	64.2	64.2	83	58.9	0	1	248	0.00	29.972 
02:30	64.0	64.0	64.0	84	59.1	0	1	248	0.00	29.973 
02:35	64.0	64.0	64.0	84	59.1	0	1	248	0.00	29.973 
02:40	63.9	63.9	63.9	84	59.0	0	1	248	0.00	29.973 
02:45	63.9	63.9	63.9	84	59.0	0	1	248	0.00	29.971 
02:50	63.7	63.7	63.7	84	58.8	0	1	248	0.00	29.971 
02:55	63.7	63.7	63.7	84	58.8	0	0	---	0.00	29.971 
03:00	63.5	63.5	63.5	84	58.6	0	1	248	0.00	29.967 
03:05	63.2	63.2	63.2	85	58.6	0	0	---	0.00	29.967 
03:10	63.2	63.2	63.2	85	58.6	0	1	248	0.00	29.967 
03:15	63.1	63.1	63.1	85	58.5	0	1	248	0.00	29.972 
03:20	62.9	62.9	62.9	85	58.3	0	1	248	0.00	29.972 
03:25	63.1	63.1	63.1	85	58.5	0	1	248	0.00	29.972 
03:30	63.1	63.1	63.1	85	58.5	0	0	---	0.00	29.974 
03:35	62.9	62.9	62.9	85	58.3	0	0	---	0.00	29.974 
03:40	62.9	62.9	62.9	85	58.3	0	0	---	0.00	29.974 
03:45	62.7	62.7	62.7	85	58.1	0	0	---	0.00	29.974 
03:50	62.6	62.6	62.6	85	58.0	0	0	---	0.00	29.974 
03:55	62.4	62.4	62.4	85	57.8	0	0	---	0.00	29.974 
04:00	62.1	62.1	62.1	86	57.9	0	0	---	0.00	29.976 
04:05	62.0	62.0	62.0	86	57.8	0	0	---	0.00	29.976 
04:10	61.8	61.8	61.8	87	57.9	0	0	---	0.00	29.976 
04:15	61.8	61.8	61.8	87	57.9	0	0	---	0.00	29.974 
04:20	61.6	61.6	61.6	87	57.7	0	0	---	0.00	29.974 
04:25	61.5	61.5	61.5	88	57.9	0	0	---	0.00	29.974 
04:30	61.3	61.3	61.3	88	57.7	0	0	---	0.00	29.976 
04:35	61.2	61.2	61.2	88	57.6	0	0	---	0.00	29.976 
04:40	61.0	61.0	61.0	88	57.4	0	0	---	0.00	29.976 
04:45	61.0	61.0	61.0	88	57.4	0	0	---	0.00	29.977 
04:50	60.9	60.9	60.9	88	57.3	0	0	---	0.00	29.977 
04:55	60.9	60.9	60.9	88	57.3	0	0	---	0.00	29.977 
05:00	60.7	60.7	60.7	89	57.4	0	0	---	0.00	29.976 
05:05	60.5	60.5	60.5	89	57.2	0	0	---	0.00	29.976 
05:10	60.5	60.5	60.5	89	57.2	0	0	---	0.00	29.976 
05:15	60.5	60.5	60.5	90	57.5	0	0	---	0.00	29.979 
05:20	60.5	60.5	60.5	89	57.2	0	1	248	0.00	29.979 
05:25	60.5	60.5	60.5	89	57.2	0	0	---	0.00	29.979 
05:30	60.7	60.7	60.7	89	57.4	0	0	---	0.00	29.982 
05:35	60.7	60.7	60.7	89	57.4	0	0	---	0.00	29.982 
05:40	60.7	60.7	60.7	89	57.4	0	0	---	0.00	29.982 
05:45	60.9	60.9	60.9	88	57.3	0	1	248	0.00	29.982 
05:50	60.9	60.9	60.9	88	57.3	0	0	---	0.00	29.982 
05:55	61.0	61.0	61.0	88	57.4	0	1	248	0.00	29.982 
06:00	61.0	61.0	61.0	87	57.1	0	2	248	0.00	29.981 
06:05	61.0	61.0	61.0	87	57.1	0	0	---	0.00	29.981 
06:10	60.9	60.9	60.9	87	57.0	0	1	248	0.00	29.981 
06:15	60.7	60.7	60.7	87	56.8	0	1	248	0.00	29.981 
06:20	60.7	60.7	60.7	87	56.8	0	1	248	0.00	29.981 
06:25	60.7	60.7	60.7	87	56.8	0	0	---	0.00	29.981 
06:30	60.7	60.7	60.7	87	56.8	0	1	248	0.00	29.983 
06:35	60.5	60.5	60.5	87	56.6	0	0	---	0.00	29.983 
06:40	60.5	60.5	60.5	87	56.6	0	0	---	0.00	29.983 
06:45	60.4	60.4	60.4	87	56.5	0	0	---	0.00	29.989 
06:50	60.2	60.2	60.2	88	56.6	0	0	---	0.00	29.989 
06:55	60.2	60.2	60.2	88	56.6	0	0	---	0.00	29.989 
07:00	60.1	60.1	60.1	88	56.5	0	0	---	0.00	29.993 
07:05	60.1	60.1	60.1	88	56.5	0	0	---	0.00	29.993 
07:10	59.9	59.9	59.9	88	56.3	0	0	---	0.00	29.993 
07:15	59.9	59.9	59.9	89	56.6	0	0	---	0.00	29.998 
07:20	59.8	59.8	59.8	89	56.5	0	0	---	0.00	29.998 
07:25	59.6	59.6	59.6	89	56.4	0	0	---	0.00	29.998 
07:30	59.8	59.8	59.8	89	56.5	0	0	---	0.00	29.998 
07:35	59.6	59.6	59.6	89	56.4	0	0	---	0.00	29.998 
07:40	59.6	59.6	59.6	89	56.4	0	0	---	0.00	29.998 
07:45	59.8	59.8	59.8	89	56.5	0	0	---	0.00	30.000 
07:50	59.8	59.8	59.8	89	56.5	0	0	---	0.00	30.000 
07:55	59.8	59.8	59.8	90	56.9	0	1	248	0.00	30.000 
08:00	59.9	59.9	59.9	90	57.0	0	1	248	0.00	30.002 
08:05	60.2	60.2	60.2	89	56.9	0	0	---	0.00	30.002 
08:10	60.5	60.5	60.5	89	57.2	0	1	248	0.00	30.002 
08:15	61.0	61.0	61.0	89	57.7	0	0	---	0.00	30.003 
08:20	61.6	61.6	61.6	86	57.4	0	0	---	0.00	30.003 
08:25	62.1	62.1	62.1	86	57.9	0	0	---	0.00	30.003 
08:30	62.6	62.6	62.6	85	58.0	0	1	248	0.00	30.013 
08:35	63.2	63.2	63.2	85	58.6	0	0	---	0.00	30.013 
08:40	63.5	63.5	63.5	83	58.2	0	0	---	0.00	30.013 
08:45	64.2	64.2	64.2	82	58.6	0	0	---	0.00	30.013 
08:50	64.7	64.7	64.7	81	58.7	0	1	248	0.00	30.013 
08:55	65.0	65.0	65.0	79	58.3	0	2	248	0.00	30.013 
09:00	65.5	65.5	65.5	79	58.8	0	2	248	0.00	30.012 
09:05	65.8	65.8	65.8	78	58.7	0	1	248	0.00	30.012 
09:10	66.1	66.1	66.1	77	58.7	0	1	248	0.00	30.012 
09:15	66.4	66.4	66.4	76	58.6	0	2	248	0.00	30.013 
09:20	66.9	66.9	66.9	77	59.4	0	1	248	0.00	30.013 
09:25	67.3	67.3	67.3	74	58.7	1	3	248	0.00	30.013 
09:30	67.8	67.8	67.8	73	58.8	1	3	248	0.00	30.010 
09:35	68.1	68.1	68.1	72	58.7	2	4	248	0.00	30.010 
09:40	68.4	68.4	68.4	72	59.0	1	3	248	0.00	30.010 
09:45	68.9	68.9	68.9	71	59.1	1	3	248	0.00	30.011 
09:50	69.3	69.3	69.3	70	59.1	1	2	248	0.00	30.011 
09:55	69.6	69.6	69.6	68	58.6	2	4	248	0.00	30.011 
10:00	70.3	70.3	70.3	69	59.6	0	2	270	0.00	30.008 
10:05	70.8	70.8	70.8	69	60.1	1	3	248	0.00	30.008 
10:10	71.3	71.3	71.3	67	59.8	1	3	248	0.00	30.008 
10:15	71.6	71.6	71.6	66	59.6	1	3	248	0.00	30.010 
10:20	72.1	72.1	72.1	69	61.4	1	3	248	0.00	30.010 
10:25	72.7	72.7	72.7	63	59.4	1	3	248	0.00	30.010 
10:30	73.0	73.0	73.0	62	59.2	1	3	248	0.00	30.011 
10:35	73.3	73.3	73.3	65	60.8	1	3	248	0.00	30.011 
10:40	73.9	73.9	73.9	64	60.9	1	2	248	0.00	30.011 
10:45	74.6	74.6	74.6	62	60.7	1	2	248	0.00	30.012 
10:50	75.1	75.1	77.4	60	60.2	1	2	248	0.00	30.012 
10:55	74.9	74.9	74.9	59	59.6	1	3	248	0.00	30.012 
11:00	74.7	74.7	74.7	58	58.9	1	3	248	0.00	30.018 
11:05	74.9	74.9	74.9	63	61.4	1	2	248	0.00	30.018 
11:10	75.4	75.4	77.6	60	60.5	1	4	248	0.00	30.018 
11:15	75.8	75.8	77.9	58	59.9	1	2	248	0.00	30.017 
11:20	76.1	76.1	78.1	57	59.7	1	2	248	0.00	30.017 
11:25	76.5	76.5	78.4	57	60.1	1	3	248	0.00	30.017 
11:30	76.8	76.8	78.6	57	60.4	2	4	248	0.00	30.015 
11:35	77.2	77.2	78.9	57	60.8	2	5	248	0.00	30.015 
11:40	77.2	77.2	78.9	56	60.3	2	5	248	0.00	30.015 
11:45	77.2	77.2	78.9	55	59.8	1	3	248	0.00	30.014 
11:50	77.6	77.6	79.2	55	60.1	2	5	248	0.00	30.014 
11:55	77.9	77.9	79.3	54	59.9	2	4	248	0.00	30.014 
12:00	77.7	77.7	79.2	54	59.7	2	4	292	0.00	30.010 
12:05	77.9	77.9	79.4	55	60.4	2	3	248	0.00	30.010 
12:10	78.5	78.5	79.8	54	60.4	2	3	270	0.00	30.010 
12:15	78.8	78.8	80.2	56	61.8	1	3	270	0.00	30.006 
12:20	79.0	79.0	80.3	54	60.9	2	4	270	0.00	30.006 
12:25	79.2	79.2	80.5	55	61.6	1	3	270	0.00	30.006 
12:30	79.8	79.8	80.8	52	60.6	2	4	270	0.00	30.006 
12:35	79.8	79.8	80.5	49	58.9	2	4	248	0.00	30.006 
12:40	79.9	79.9	80.8	51	60.1	1	3	270	0.00	30.006 
12:45	80.3	80.3	81.2	51	60.5	1	4	270	0.00	30.004 
12:50	80.7	80.7	81.4	50	60.3	1	3	248	0.00	30.004 
12:55	80.7	80.7	81.3	49	59.7	2	3	270	0.00	30.004 
13:00	80.3	80.3	81.0	49	59.4	2	3	270	0.00	29.998 
13:05	80.5	80.5	81.2	49	59.6	1	3	338	0.00	29.998 
13:10	81.1	81.1	82.1	52	61.8	2	3	270	0.00	29.998 
13:15	81.6	81.6	82.8	53	62.8	1	3	270	0.00	29.998 
13:20	81.6	81.6	82.1	48	60.0	1	4	248	0.00	29.998 
13:25	81.4	81.4	82.0	49	60.4	2	4	315	0.00	29.998 
13:30	81.6	81.6	82.1	48	60.0	1	3	292	0.00	29.993 
13:35	82.2	82.2	82.7	48	60.5	2	3	270	0.00	29.993 
13:40	82.6	82.6	83.1	48	60.9	1	3	248	0.00	29.993 
13:45	82.8	82.8	82.7	44	58.6	1	5	248	0.00	29.987 
13:50	82.6	82.6	82.7	45	59.1	2	6	248	0.00	29.987 
13:55	82.4	82.4	82.6	46	59.5	1	3	270	0.00	29.987 
14:00	82.4	82.4	82.6	46	59.5	2	6	270	0.00	29.989 
14:05	82.2	82.2	82.3	45	58.7	2	5	270	0.00	29.989 
14:10	82.6	82.6	83.1	48	60.9	1	2	248	0.00	29.989 
14:15	83.2	83.2	83.6	47	60.8	1	3	248	0.00	29.986 
14:20	83.4	83.4	83.7	46	60.4	1	3	270	0.00	29.986 
14:25	82.8	82.8	82.9	45	59.3	2	4	292	0.00	29.986 
14:30	82.6	82.6	82.7	45	59.1	2	4	248	0.00	29.982 
14:35	82.8	82.8	82.9	45	59.3	1	3	248	0.00	29.982 
14:40	83.2	83.2	83.4	46	60.2	1	3	270	0.00	29.982 
14:45	83.6	83.6	83.5	44	59.3	2	4	270	0.00	29.979 
14:50	83.8	83.8	83.6	43	58.9	2	4	248	0.00	29.979 
14:55	83.6	83.6	83.2	42	58.0	1	3	270	0.00	29.979 
15:00	83.6	83.6	83.4	43	58.7	2	4	270	0.00	29.976 
15:05	83.4	83.4	83.2	43	58.5	1	2	315	0.00	29.976 
15:10	83.6	83.6	83.2	42	58.0	1	5	315	0.00	29.976 
15:15	83.6	83.6	83.2	42	58.0	1	3	270	0.00	29.974 
15:20	83.8	83.8	83.6	43	58.9	1	3	270	0.00	29.974 
15:25	84.0	84.0	83.3	40	57.0	1	3	270	0.00	29.974 
15:30	84.0	84.0	83.4	41	57.7	1	3	270	0.00	29.973 
15:35	83.2	83.2	82.7	41	57.0	1	3	292	0.00	29.973 
15:40	83.0	83.0	82.6	42	57.5	0	2	292	0.00	29.973 
15:45	83.0	83.0	82.9	44	58.8	1	2	315	0.00	29.972 
15:50	82.6	82.6	82.5	44	58.4	1	3	315	0.00	29.972 
15:55	83.2	83.2	83.0	43	58.3	1	3	270	0.00	29.972 
16:00	82.8	82.8	82.2	40	56.0	1	3	315	0.00	29.971 
16:05	82.8	82.8	82.0	39	55.3	1	2	315	0.00	29.971 
16:10	83.0	83.0	82.6	42	57.5	0	2	315	0.00	29.971 
16:15	83.2	83.2	82.4	39	55.6	1	2	315	0.00	29.963 
16:20	83.4	83.4	82.6	39	55.8	1	3	315	0.00	29.963 
16:25	83.8	83.8	82.5	36	54.0	2	3	270	0.00	29.963 
16:30	83.6	83.6	82.9	40	56.7	2	3	270	0.00	29.963 
16:35	83.8	83.8	83.1	40	56.9	1	3	248	0.00	29.963 
16:40	83.6	83.6	83.4	43	58.7	0	2	248	0.00	29.963 
16:45	83.8	83.8	82.5	36	54.0	1	3	90	0.00	29.964 
16:50	83.6	83.6	82.9	40	56.7	1	3	248	0.00	29.964 
16:55	83.4	83.4	82.9	41	57.2	1	2	315	0.00	29.964 
17:00	83.4	83.4	82.7	40	56.5	1	2	315	0.00	29.964 
17:05	83.4	83.4	82.6	39	55.8	0	1	315	0.00	29.964 
17:10	82.6	82.6	81.8	39	55.1	0	2	315	0.00	29.964 
17:15	82.0	82.0	81.3	39	54.6	1	3	315	0.00	29.964 
17:20	82.0	82.0	81.5	40	55.3	0	1	315	0.00	29.964 
17:25	81.8	81.8	81.1	38	53.7	0	2	315	0.00	29.964 
17:30	81.2	81.2	81.2	44	57.2	1	3	315	0.00	29.970 
17:35	79.9	79.9	80.4	46	57.2	1	3	338	0.00	29.970 
17:40	78.6	78.6	79.4	46	56.1	0	3	315	0.00	29.970 
17:45	77.9	77.9	78.9	45	54.8	0	1	315	0.00	29.972 
17:50	77.6	77.6	78.8	47	55.8	0	1	315	0.00	29.972 
17:55	77.2	77.2	78.7	50	57.1	1	4	315	0.00	29.972 
18:00	76.1	76.1	78.1	54	58.2	1	4	292	0.00	29.979 
18:05	74.9	74.9	74.9	57	58.6	0	2	292	0.00	29.979 
18:10	74.0	74.0	74.0	55	56.8	0	1	292	0.00	29.979 
18:15	73.9	73.9	73.9	55	56.7	0	2	292	0.00	29.983 
18:20	73.3	73.3	73.3	55	56.1	0	1	292	0.00	29.983 
18:25	73.7	73.7	73.7	58	58.0	0	1	292	0.00	29.983 
18:30	74.0	74.0	74.0	62	60.1	0	1	292	0.00	29.989 
18:35	74.2	74.2	74.2	64	61.2	0	1	292	0.00	29.989 
18:40	74.0	74.0	74.0	68	62.8	0	1	292	0.00	29.989 
18:45	73.9	73.9	73.9	71	63.9	0	1	292	0.00	29.992 
18:50	73.5	73.5	73.5	72	63.9	0	1	292	0.00	29.992 
18:55	73.3	73.3	73.3	73	64.1	0	1	292	0.00	29.992 
19:00	73.2	73.2	73.2	74	64.4	0	1	292	0.00	29.995 
19:05	73.2	73.2	73.2	74	64.4	0	1	292	0.00	29.995 
19:10	73.2	73.2	73.2	75	64.8	0	1	292	0.00	29.995 
19:15	73.2	73.2	73.2	76	65.2	0	1	292	0.00	29.999 
19:20	73.2	73.2	73.2	77	65.5	1	5	90	0.00	29.999 
19:25	73.0	73.0	73.0	76	65.0	3	13	90	0.00	29.999 
19:30	72.8	72.8	72.8	76	64.8	3	6	90	0.00	30.001 
19:35	72.5	72.5	72.5	76	64.5	3	7	112	0.00	30.001 
19:40	72.0	72.0	72.0	77	64.4	2	4	112	0.00	30.001 
19:45	71.6	71.6	71.6	78	64.4	2	5	112	0.00	30.011 
19:50	71.3	71.3	71.3	78	64.1	1	5	45	0.00	30.011 
19:55	70.9	70.9	70.9	79	64.1	1	3	90	0.00	30.011 
20:00	70.8	70.8	70.8	79	64.0	1	3	90	0.00	30.014 
20:05	70.4	70.4	70.4	79	63.6	1	2	45	0.00	30.014 
20:10	70.3	70.3	70.3	80	63.8	1	4	90	0.00	30.014 
20:15	70.1	70.1	70.1	80	63.6	1	3	90	0.00	30.010 
20:20	69.9	69.9	69.9	81	63.8	1	4	90	0.00	30.010 
20:25	69.8	69.8	69.8	81	63.7	1	2	68	0.00	30.010 
20:30	69.6	69.6	69.6	81	63.5	1	3	68	0.00	30.015 
20:35	69.4	69.4	69.4	82	63.7	2	4	90	0.00	30.015 
20:40	69.3	69.3	69.3	82	63.6	2	5	90	0.00	30.015 
20:45	69.1	69.1	69.1	82	63.4	2	9	90	0.00	30.027 
20:50	68.9	68.9	68.9	82	63.2	2	4	90	0.00	30.027 
20:55	68.8	68.8	68.8	81	62.7	2	7	112	0.00	30.027 
21:00	68.6	68.6	68.6	82	62.9	1	4	90	0.00	30.039 
21:05	68.4	68.4	68.4	81	62.3	2	4	90	0.00	30.039 
21:10	68.1	68.1	68.1	81	62.0	1	3	112	0.00	30.039 
21:15	67.8	67.8	67.8	80	61.4	1	2	112	0.00	30.045 
21:20	67.6	67.6	67.6	79	60.8	2	5	90	0.00	30.045 
21:25	67.3	67.3	67.3	80	60.9	1	3	90	0.00	30.045 
21:30	67.1	67.1	67.1	81	61.1	1	3	68	0.00	30.048 
21:35	66.9	66.9	66.9	82	61.2	2	4	112	0.00	30.048 
21:40	66.9	66.9	66.9	83	61.6	2	5	90	0.00	30.048 
21:45	66.8	66.8	66.8	84	61.8	1	4	90	0.00	30.058 
21:50	66.6	66.6	66.6	84	61.6	2	6	68	0.00	30.058 
21:55	66.6	66.6	66.6	84	61.6	2	4	112	0.00	30.058 
22:00	66.4	66.4	66.4	84	61.4	2	6	112	0.00	30.059 
22:05	66.4	66.4	66.4	85	61.7	2	5	112	0.00	30.059 
22:10	66.4	66.4	66.4	85	61.7	2	6	90	0.00	30.059 
22:15	66.3	66.3	66.3	85	61.6	2	9	90	0.00	30.057 
22:20	66.3	66.3	66.3	86	62.0	2	5	90	0.00	30.057 
22:25	66.1	66.1	66.1	86	61.8	1	5	112	0.00	30.057 
22:30	66.1	66.1	66.1	87	62.1	1	3	112	0.00	30.069 
22:35	66.0	66.0	66.0	87	62.0	1	2	68	0.00	30.069 
22:40	66.0	66.0	66.0	88	62.3	1	5	68	0.00	30.069 
22:45	65.8	65.8	65.8	88	62.1	2	4	90	0.00	30.070 
22:50	65.8	65.8	65.8	88	62.1	3	6	90	0.00	30.070 
22:55	65.6	65.6	65.6	89	62.3	1	3	90	0.00	30.070 
23:00	65.5	65.5	65.5	89	62.2	1	5	90	0.00	30.070 
23:05	65.5	65.5	65.5	89	62.2	1	4	90	0.00	30.070 
23:10	65.5	65.5	65.5	89	62.2	1	4	68	0.00	30.070 
23:15	65.5	65.5	65.5	89	62.2	3	7	90	0.00	30.068 
23:20	65.3	65.3	65.3	88	61.6	3	7	90	0.00	30.068 
23:25	65.2	65.2	65.2	88	61.6	3	6	90	0.00	30.068 
23:30	65.0	65.0	65.0	88	61.4	2	6	112	0.00	30.074 
23:35	65.0	65.0	65.0	88	61.4	2	4	90	0.00	30.074 
23:40	65.0	65.0	65.0	88	61.4	3	6	90	0.00	30.074 
23:45	65.0	65.0	65.0	88	61.4	3	6	90	0.00	30.077 
23:50	65.0	65.0	65.0	88	61.4	3	6	90	0.00	30.077 
23:55	65.0	65.0	65.0	88	61.4	2	5	90	0.00	30.077 

CoCoRaHS
IN-AL-39
A2 Web Hosting
Creative Commons License
GoDaddy
Look for:

loaded 2017-12-13 10:19:24 • last modified 2010-11-18 10:43:29
Privacy PolicyDisclaimer
• wx.awcolley.com is powered by PmWiki v.2002016 •
• all content (unless otherwise noted) © 2017 A W Colley